Terminal Aerodrome Forecast
Issued by NWS

Home | Current Version | Previous Version | Text Only | Print | Product List | Glossary On
Versions: 1 2 3 4 5 6 7 8 9 10 11 12 13 14 15
000
FTUS46 KSTO 212300
TAFSAC
TAF
KSAC 212329Z 2200/2224 VRB04KT P6SM SCT200
     FM220300 VRB04KT 4SM BR BKN015
     FM220700 VRB03KT 1SM BR OVC003
     FM221100 VRB03KT 1/4SM FG OVC001
     FM221600 33007KT 2SM BR OVC003
     FM222200 32011KT 6SM BR SCT010=

USA.gov is the U.S. government's official web portal to all federal, state and local government web resources and services.